sensor_id;sensor_type;location;lat;lon;timestamp;pressure;altitude;pressure_sealevel;temperature;humidity
8320;BME280;4197;42.130;24.746;2022-07-11T00:01:27;99246.75;;;20.10;57.03
8320;BME280;4197;42.130;24.746;2022-07-11T00:03:55;99249.16;;;20.08;57.17
8320;BME280;4197;42.130;24.746;2022-07-11T00:06:24;99247.94;;;20.09;57.28
8320;BME280;4197;42.130;24.746;2022-07-11T00:08:52;99241.81;;;20.01;57.61
8320;BME280;4197;42.130;24.746;2022-07-11T00:11:20;99242.59;;;20.01;57.76
8320;BME280;4197;42.130;24.746;2022-07-11T00:13:48;99237.94;;;19.98;58.21
8320;BME280;4197;42.130;24.746;2022-07-11T00:16:17;99235.72;;;19.90;58.55
8320;BME280;4197;42.130;24.746;2022-07-11T00:18:46;99235.44;;;19.84;58.82
8320;BME280;4197;42.130;24.746;2022-07-11T00:21:15;99237.38;;;19.87;58.70
8320;BME280;4197;42.130;24.746;2022-07-11T00:23:43;99243.75;;;19.80;58.78
8320;BME280;4197;42.130;24.746;2022-07-11T00:26:11;99242.63;;;19.78;58.96
8320;BME280;4197;42.130;24.746;2022-07-11T00:28:39;99236.44;;;19.74;58.82
8320;BME280;4197;42.130;24.746;2022-07-11T00:31:08;99243.19;;;19.69;59.33
8320;BME280;4197;42.130;24.746;2022-07-11T00:33:37;99245.63;;;19.64;59.34
8320;BME280;4197;42.130;24.746;2022-07-11T00:36:07;99250.75;;;19.61;59.35
8320;BME280;4197;42.130;24.746;2022-07-11T00:38:36;99252.72;;;19.61;59.41
8320;BME280;4197;42.130;24.746;2022-07-11T00:41:04;99255.13;;;19.59;59.39
8320;BME280;4197;42.130;24.746;2022-07-11T00:43:34;99253.50;;;19.61;59.14
8320;BME280;4197;42.130;24.746;2022-07-11T00:46:03;99253.50;;;19.61;58.75
8320;BME280;4197;42.130;24.746;2022-07-11T00:48:32;99258.97;;;19.65;58.68
8320;BME280;4197;42.130;24.746;2022-07-11T00:51:01;99245.56;;;19.67;58.38
8320;BME280;4197;42.130;24.746;2022-07-11T00:53:33;99258.16;;;19.68;58.34
8320;BME280;4197;42.130;24.746;2022-07-11T00:56:02;99257.66;;;19.73;58.07
8320;BME280;4197;42.130;24.746;2022-07-11T00:58:31;99256.88;;;19.73;58.11
8320;BME280;4197;42.130;24.746;2022-07-11T01:01:00;99250.19;;;19.74;57.84
8320;BME280;4197;42.130;24.746;2022-07-11T01:03:29;99253.34;;;19.72;58.10
8320;BME280;4197;42.130;24.746;2022-07-11T01:05:57;99259.63;;;19.73;57.99
8320;BME280;4197;42.130;24.746;2022-07-11T01:08:25;99263.56;;;19.72;58.01
8320;BME280;4197;42.130;24.746;2022-07-11T01:11:01;99254.19;;;19.69;58.31
8320;BME280;4197;42.130;24.746;2022-07-11T01:13:30;99267.63;;;19.64;58.33
8320;BME280;4197;42.130;24.746;2022-07-11T01:16:09;99270.44;;;19.60;58.72
8320;BME280;4197;42.130;24.746;2022-07-11T01:18:38;99272.06;;;19.57;58.89
8320;BME280;4197;42.130;24.746;2022-07-11T01:21:11;99275.63;;;19.54;59.12
8320;BME280;4197;42.130;24.746;2022-07-11T01:23:47;99272.53;;;19.52;59.39
8320;BME280;4197;42.130;24.746;2022-07-11T01:26:16;99274.91;;;19.50;59.02
8320;BME280;4197;42.130;24.746;2022-07-11T01:28:44;99270.25;;;19.47;59.38
8320;BME280;4197;42.130;24.746;2022-07-11T01:31:12;99271.47;;;19.46;59.60
8320;BME280;4197;42.130;24.746;2022-07-11T01:33:41;99269.53;;;19.43;59.75
8320;BME280;4197;42.130;24.746;2022-07-11T01:36:10;99264.88;;;19.40;60.02
8320;BME280;4197;42.130;24.746;2022-07-11T01:38:39;99259.50;;;19.33;60.25
8320;BME280;4197;42.130;24.746;2022-07-11T01:41:09;99257.94;;;19.32;60.33
8320;BME280;4197;42.130;24.746;2022-07-11T01:43:37;99263.53;;;19.25;60.70
8320;BME280;4197;42.130;24.746;2022-07-11T01:46:05;99251.03;;;19.20;61.06
8320;BME280;4197;42.130;24.746;2022-07-11T01:48:34;99266.75;;;19.20;61.42
8320;BME280;4197;42.130;24.746;2022-07-11T01:51:02;99262.94;;;19.13;61.87
8320;BME280;4197;42.130;24.746;2022-07-11T01:53:30;99261.09;;;19.07;61.92
8320;BME280;4197;42.130;24.746;2022-07-11T01:55:58;99266.16;;;19.08;62.08
8320;BME280;4197;42.130;24.746;2022-07-11T01:58:46;99259.50;;;19.06;62.04
8320;BME280;4197;42.130;24.746;2022-07-11T02:01:14;99265.06;;;19.02;62.23
8320;BME280;4197;42.130;24.746;2022-07-11T02:03:43;99265.00;;;19.06;62.25
8320;BME280;4197;42.130;24.746;2022-07-11T02:06:12;99265.06;;;19.02;62.36
8320;BME280;4197;42.130;24.746;2022-07-11T02:08:41;99269.28;;;19.10;62.13
8320;BME280;4197;42.130;24.746;2022-07-11T02:11:09;99263.41;;;19.08;62.18
8320;BME280;4197;42.130;24.746;2022-07-11T02:13:37;99274.47;;;19.05;62.45
8320;BME280;4197;42.130;24.746;2022-07-11T02:16:07;99274.41;;;19.08;62.09
8320;BME280;4197;42.130;24.746;2022-07-11T02:18:35;99285.38;;;19.08;62.24
8320;BME280;4197;42.130;24.746;2022-07-11T02:21:04;99288.97;;;19.05;62.41
8320;BME280;4197;42.130;24.746;2022-07-11T02:23:32;99288.91;;;19.09;62.41
8320;BME280;4197;42.130;24.746;2022-07-11T02:26:00;99294.84;;;19.07;62.33
8320;BME280;4197;42.130;24.746;2022-07-11T02:28:28;99296.38;;;19.08;62.44
8320;BME280;4197;42.130;24.746;2022-07-11T02:30:56;99302.31;;;19.07;62.39
8320;BME280;4197;42.130;24.746;2022-07-11T02:33:26;99301.09;;;19.08;62.45
8320;BME280;4197;42.130;24.746;2022-07-11T02:35:54;99301.47;;;19.10;62.41
8320;BME280;4197;42.130;24.746;2022-07-11T02:38:22;99301.50;;;19.06;62.53
8320;BME280;4197;42.130;24.746;2022-07-11T02:40:50;99311.31;;;19.07;62.47
8320;BME280;4197;42.130;24.746;2022-07-11T02:43:18;99322.72;;;19.06;62.15
8320;BME280;4197;42.130;24.746;2022-07-11T02:45:47;99321.53;;;19.07;62.14
8320;BME280;4197;42.130;24.746;2022-07-11T02:48:15;99314.09;;;19.04;61.96
8320;BME280;4197;42.130;24.746;2022-07-11T02:50:45;99325.47;;;19.06;62.26
8320;BME280;4197;42.130;24.746;2022-07-11T02:53:13;99319.72;;;18.97;62.66
8320;BME280;4197;42.130;24.746;2022-07-11T02:55:41;99325.22;;;18.97;62.37
8320;BME280;4197;42.130;24.746;2022-07-11T02:58:09;99325.16;;;19.00;62.65
8320;BME280;4197;42.130;24.746;2022-07-11T03:00:37;99333.03;;;18.98;63.01
8320;BME280;4197;42.130;24.746;2022-07-11T03:03:06;99328.00;;;18.93;63.31
8320;BME280;4197;42.130;24.746;2022-07-11T03:05:34;99335.44;;;18.96;63.06
8320;BME280;4197;42.130;24.746;2022-07-11T03:08:04;99337.84;;;18.90;63.33
8320;BME280;4197;42.130;24.746;2022-07-11T03:10:32;99347.31;;;18.86;63.45
8320;BME280;4197;42.130;24.746;2022-07-11T03:13:00;99331.69;;;18.83;63.53
8320;BME280;4197;42.130;24.746;2022-07-11T03:15:29;99335.84;;;18.94;63.16
8320;BME280;4197;42.130;24.746;2022-07-11T03:17:57;99337.28;;;19.03;62.40
8320;BME280;4197;42.130;24.746;2022-07-11T03:20:25;99338.69;;;19.14;61.43
8320;BME280;4197;42.130;24.746;2022-07-11T03:22:53;99332.72;;;19.20;61.16
8320;BME280;4197;42.130;24.746;2022-07-11T03:25:23;99338.91;;;19.27;60.89
8320;BME280;4197;42.130;24.746;2022-07-11T03:27:51;99343.78;;;19.43;59.79
8320;BME280;4197;42.130;24.746;2022-07-11T03:30:19;99338.22;;;19.47;59.69
8320;BME280;4197;42.130;24.746;2022-07-11T03:32:47;99330.50;;;19.61;58.99
8320;BME280;4197;42.130;24.746;2022-07-11T03:35:16;99340.53;;;19.75;58.30
8320;BME280;4197;42.130;24.746;2022-07-11T03:38:01;99337.13;;;19.91;57.67
8320;BME280;4197;42.130;24.746;2022-07-11T03:40:31;99349.09;;;20.04;57.12
8320;BME280;4197;42.130;24.746;2022-07-11T03:42:59;99350.16;;;20.11;57.12
8320;BME280;4197;42.130;24.746;2022-07-11T03:45:27;99343.44;;;20.12;56.71
8320;BME280;4197;42.130;24.746;2022-07-11T03:47:55;99348.53;;;20.13;56.80
8320;BME280;4197;42.130;24.746;2022-07-11T03:50:24;99355.41;;;20.25;55.67
8320;BME280;4197;42.130;24.746;2022-07-11T03:52:52;99363.19;;;20.30;55.41
8320;BME280;4197;42.130;24.746;2022-07-11T03:55:20;99359.78;;;20.42;55.27
8320;BME280;4197;42.130;24.746;2022-07-11T03:57:50;99364.41;;;20.49;54.71
8320;BME280;4197;42.130;24.746;2022-07-11T04:00:18;99354.38;;;20.59;53.69
8320;BME280;4197;42.130;24.746;2022-07-11T04:02:47;99371.91;;;20.68;53.93
8320;BME280;4197;42.130;24.746;2022-07-11T04:05:15;99361.88;;;20.78;53.39
8320;BME280;4197;42.130;24.746;2022-07-11T04:07:44;99364.13;;;20.83;53.08
8320;BME280;4197;42.130;24.746;2022-07-11T04:10:12;99367.38;;;20.98;52.46
8320;BME280;4197;42.130;24.746;2022-07-11T04:12:40;99369.56;;;21.07;52.58
8320;BME280;4197;42.130;24.746;2022-07-11T04:15:10;99366.72;;;21.10;52.14
8320;BME280;4197;42.130;24.746;2022-07-11T04:17:38;99370.31;;;21.07;52.05
8320;BME280;4197;42.130;24.746;2022-07-11T04:20:07;99371.44;;;21.10;52.37
8320;BME280;4197;42.130;24.746;2022-07-11T04:22:35;99368.19;;;21.15;52.33
8320;BME280;4197;42.130;24.746;2022-07-11T04:25:05;99372.53;;;21.32;52.01
8320;BME280;4197;42.130;24.746;2022-07-11T04:27:33;99376.34;;;21.38;51.48
8320;BME280;4197;42.130;24.746;2022-07-11T04:30:07;99373.66;;;21.35;51.79
8320;BME280;4197;42.130;24.746;2022-07-11T04:32:36;99373.50;;;21.42;52.27
8320;BME280;4197;42.130;24.746;2022-07-11T04:35:08;99376.53;;;21.64;51.03
8320;BME280;4197;42.130;24.746;2022-07-11T04:37:36;99372.84;;;21.71;50.41
8320;BME280;4197;42.130;24.746;2022-07-11T04:40:05;99382.25;;;21.73;50.15
8320;BME280;4197;42.130;24.746;2022-07-11T04:42:39;99380.53;;;21.79;50.31
8320;BME280;4197;42.130;24.746;2022-07-11T04:45:08;99388.78;;;21.79;50.35
8320;BME280;4197;42.130;24.746;2022-07-11T04:47:38;99388.34;;;21.97;49.81
8320;BME280;4197;42.130;24.746;2022-07-11T04:50:07;99397.59;;;22.07;50.28
8320;BME280;4197;42.130;24.746;2022-07-11T04:52:35;99389.81;;;22.18;49.63
8320;BME280;4197;42.130;24.746;2022-07-11T04:55:05;99397.59;;;22.23;49.18
8320;BME280;4197;42.130;24.746;2022-07-11T04:57:33;99399.19;;;22.37;48.97
8320;BME280;4197;42.130;24.746;2022-07-11T05:00:02;99404.72;;;22.37;48.80
8320;BME280;4197;42.130;24.746;2022-07-11T05:02:31;99413.78;;;22.38;48.05
8320;BME280;4197;42.130;24.746;2022-07-11T05:05:00;99405.16;;;22.36;48.53
8320;BME280;4197;42.130;24.746;2022-07-11T05:07:28;99398.59;;;22.30;48.98
8320;BME280;4197;42.130;24.746;2022-07-11T05:09:57;99405.22;;;22.48;48.43
8320;BME280;4197;42.130;24.746;2022-07-11T05:12:25;99412.53;;;22.55;47.61
8320;BME280;4197;42.130;24.746;2022-07-11T05:14:53;99403.13;;;22.53;47.67
8320;BME280;4197;42.130;24.746;2022-07-11T05:17:25;99413.81;;;22.67;47.50
8320;BME280;4197;42.130;24.746;2022-07-11T05:19:53;99408.66;;;22.82;47.10
8320;BME280;4197;42.130;24.746;2022-07-11T05:22:23;99422.56;;;23.07;45.99
8320;BME280;4197;42.130;24.746;2022-07-11T05:24:51;99421.66;;;23.10;46.31
8320;BME280;4197;42.130;24.746;2022-07-11T05:27:19;99430.00;;;22.94;46.82
8320;BME280;4197;42.130;24.746;2022-07-11T05:29:47;99416.47;;;23.12;45.84
8320;BME280;4197;42.130;24.746;2022-07-11T05:32:16;99425.66;;;23.22;45.75
8320;BME280;4197;42.130;24.746;2022-07-11T05:34:44;99427.66;;;23.22;45.70
8320;BME280;4197;42.130;24.746;2022-07-11T05:37:12;99415.09;;;23.33;45.42
8320;BME280;4197;42.130;24.746;2022-07-11T05:39:41;99415.84;;;23.34;45.73
8320;BME280;4197;42.130;24.746;2022-07-11T05:42:09;99416.41;;;23.54;45.18
8320;BME280;4197;42.130;24.746;2022-07-11T05:44:38;99410.09;;;23.67;44.65
8320;BME280;4197;42.130;24.746;2022-07-11T05:47:06;99416.84;;;23.66;44.80
8320;BME280;4197;42.130;24.746;2022-07-11T05:49:34;99421.38;;;23.98;43.53
8320;BME280;4197;42.130;24.746;2022-07-11T05:52:03;99427.34;;;23.96;43.35
8320;BME280;4197;42.130;24.746;2022-07-11T05:54:31;99427.06;;;23.81;43.40
8320;BME280;4197;42.130;24.746;2022-07-11T05:57:00;99426.81;;;23.89;43.64
8320;BME280;4197;42.130;24.746;2022-07-11T05:59:29;99431.97;;;24.12;43.13
8320;BME280;4197;42.130;24.746;2022-07-11T06:01:57;99442.94;;;24.16;43.20
8320;BME280;4197;42.130;24.746;2022-07-11T06:04:26;99439.19;;;23.97;43.30
8320;BME280;4197;42.130;24.746;2022-07-11T06:06:54;99442.66;;;24.01;43.30
8320;BME280;4197;42.130;24.746;2022-07-11T06:09:22;99450.56;;;24.24;42.68
8320;BME280;4197;42.130;24.746;2022-07-11T06:11:49;99456.41;;;24.39;42.45
8320;BME280;4197;42.130;24.746;2022-07-11T06:14:20;99453.78;;;24.23;42.40
8320;BME280;4197;42.130;24.746;2022-07-11T06:16:48;99446.53;;;23.91;43.83
8320;BME280;4197;42.130;24.746;2022-07-11T06:19:16;99457.47;;;23.94;42.63
8320;BME280;4197;42.130;24.746;2022-07-11T06:21:45;99452.25;;;23.58;42.68
8320;BME280;4197;42.130;24.746;2022-07-11T06:24:13;99455.25;;;23.38;43.10
8320;BME280;4197;42.130;24.746;2022-07-11T06:26:41;99460.97;;;23.18;43.75
8320;BME280;4197;42.130;24.746;2022-07-11T06:29:09;99461.09;;;23.14;44.39
8320;BME280;4197;42.130;24.746;2022-07-11T06:31:39;99460.28;;;23.14;43.49
8320;BME280;4197;42.130;24.746;2022-07-11T06:34:08;99461.41;;;23.16;42.19
8320;BME280;4197;42.130;24.746;2022-07-11T06:36:36;99457.31;;;23.21;42.14
8320;BME280;4197;42.130;24.746;2022-07-11T06:39:04;99458.16;;;23.05;41.59
8320;BME280;4197;42.130;24.746;2022-07-11T06:41:32;99452.13;;;22.94;42.16
8320;BME280;4197;42.130;24.746;2022-07-11T06:44:00;99454.06;;;22.97;41.97
8320;BME280;4197;42.130;24.746;2022-07-11T06:46:29;99454.97;;;23.07;40.71
8320;BME280;4197;42.130;24.746;2022-07-11T06:48:58;99463.38;;;23.03;41.85
8320;BME280;4197;42.130;24.746;2022-07-11T06:51:26;99455.63;;;22.98;41.26
8320;BME280;4197;42.130;24.746;2022-07-11T06:53:55;99453.28;;;22.97;41.48
8320;BME280;4197;42.130;24.746;2022-07-11T06:56:23;99451.38;;;22.93;41.61
8320;BME280;4197;42.130;24.746;2022-07-11T06:58:51;99454.63;;;23.05;41.18
8320;BME280;4197;42.130;24.746;2022-07-11T07:01:19;99446.56;;;23.10;41.48
8320;BME280;4197;42.130;24.746;2022-07-11T07:03:47;99443.06;;;23.23;41.56
8320;BME280;4197;42.130;24.746;2022-07-11T07:06:17;99450.47;;;23.26;41.48
8320;BME280;4197;42.130;24.746;2022-07-11T07:08:46;99446.59;;;23.23;41.74
8320;BME280;4197;42.130;24.746;2022-07-11T07:11:14;99446.81;;;23.29;41.99
8320;BME280;4197;42.130;24.746;2022-07-11T07:13:42;99444.94;;;23.26;41.95
8320;BME280;4197;42.130;24.746;2022-07-11T07:16:12;99444.84;;;23.29;42.04
8320;BME280;4197;42.130;24.746;2022-07-11T07:18:40;99436.41;;;23.20;41.64
8320;BME280;4197;42.130;24.746;2022-07-11T07:21:13;99445.25;;;23.28;41.86
8320;BME280;4197;42.130;24.746;2022-07-11T07:23:43;99446.06;;;23.28;41.90
8320;BME280;4197;42.130;24.746;2022-07-11T07:26:11;99445.38;;;23.24;41.44
8320;BME280;4197;42.130;24.746;2022-07-11T07:28:40;99451.38;;;23.23;42.06
8320;BME280;4197;42.130;24.746;2022-07-11T07:31:09;99453.47;;;23.31;42.03
8320;BME280;4197;42.130;24.746;2022-07-11T07:33:42;99455.59;;;23.40;41.94
8320;BME280;4197;42.130;24.746;2022-07-11T07:36:13;99453.69;;;23.50;41.61
8320;BME280;4197;42.130;24.746;2022-07-11T07:38:43;99443.63;;;23.43;41.52
8320;BME280;4197;42.130;24.746;2022-07-11T07:41:14;99444.94;;;23.38;41.78
8320;BME280;4197;42.130;24.746;2022-07-11T07:43:42;99444.31;;;23.60;41.41
8320;BME280;4197;42.130;24.746;2022-07-11T07:46:11;99444.66;;;23.75;40.55
8320;BME280;4197;42.130;24.746;2022-07-11T07:48:40;99452.41;;;23.80;39.76
8320;BME280;4197;42.130;24.746;2022-07-11T07:51:09;99445.53;;;23.85;40.24
8320;BME280;4197;42.130;24.746;2022-07-11T07:53:37;99448.09;;;23.92;40.95
8320;BME280;4197;42.130;24.746;2022-07-11T07:56:07;99451.94;;;23.94;39.09
8320;BME280;4197;42.130;24.746;2022-07-11T07:58:36;99454.50;;;24.01;39.71
8320;BME280;4197;42.130;24.746;2022-07-11T08:01:05;99449.63;;;24.06;39.10
8320;BME280;4197;42.130;24.746;2022-07-11T08:03:51;99454.97;;;24.00;38.76
8320;BME280;4197;42.130;24.746;2022-07-11T08:06:19;99446.09;;;23.92;38.74
8320;BME280;4197;42.130;24.746;2022-07-11T08:08:48;99456.84;;;24.03;38.98
8320;BME280;4197;42.130;24.746;2022-07-11T08:11:18;99456.63;;;23.97;38.57
8320;BME280;4197;42.130;24.746;2022-07-11T08:13:57;99451.06;;;23.97;36.38
8320;BME280;4197;42.130;24.746;2022-07-11T08:16:25;99456.84;;;24.03;36.48
8320;BME280;4197;42.130;24.746;2022-07-11T08:18:56;99446.94;;;24.02;36.80
8320;BME280;4197;42.130;24.746;2022-07-11T08:21:25;99440.78;;;23.98;36.90
8320;BME280;4197;42.130;24.746;2022-07-11T08:23:54;99442.84;;;24.07;37.36
8320;BME280;4197;42.130;24.746;2022-07-11T08:26:24;99441.41;;;24.15;36.67
8320;BME280;4197;42.130;24.746;2022-07-11T08:29:00;99441.47;;;24.24;37.57
8320;BME280;4197;42.130;24.746;2022-07-11T08:31:28;99448.78;;;24.43;38.28
8320;BME280;4197;42.130;24.746;2022-07-11T08:33:56;99438.47;;;24.66;37.89
8320;BME280;4197;42.130;24.746;2022-07-11T08:36:26;99440.09;;;24.76;37.89
8320;BME280;4197;42.130;24.746;2022-07-11T08:38:58;99433.22;;;24.81;36.99
8320;BME280;4197;42.130;24.746;2022-07-11T08:41:28;99434.31;;;24.83;36.58
8320;BME280;4197;42.130;24.746;2022-07-11T08:43:58;99432.16;;;24.87;35.78
8320;BME280;4197;42.130;24.746;2022-07-11T08:46:27;99433.59;;;24.92;36.36
8320;BME280;4197;42.130;24.746;2022-07-11T08:48:59;99436.41;;;25.01;36.87
8320;BME280;4197;42.130;24.746;2022-07-11T08:51:27;99425.59;;;25.16;36.23
8320;BME280;4197;42.130;24.746;2022-07-11T08:53:56;99425.19;;;25.27;35.38
8320;BME280;4197;42.130;24.746;2022-07-11T08:56:25;99425.00;;;25.21;35.20
8320;BME280;4197;42.130;24.746;2022-07-11T08:58:58;99426.56;;;25.22;35.70
8320;BME280;4197;42.130;24.746;2022-07-11T09:01:28;99426.88;;;25.24;35.36
8320;BME280;4197;42.130;24.746;2022-07-11T09:03:58;99432.88;;;25.23;35.42
8320;BME280;4197;42.130;24.746;2022-07-11T09:06:27;99423.31;;;25.02;34.41
8320;BME280;4197;42.130;24.746;2022-07-11T09:08:59;99420.13;;;24.81;34.19
8320;BME280;4197;42.130;24.746;2022-07-11T09:11:47;99412.94;;;24.93;34.69
8320;BME280;4197;42.130;24.746;2022-07-11T09:14:22;99416.75;;;25.08;34.57
8320;BME280;4197;42.130;24.746;2022-07-11T09:16:56;99414.56;;;25.25;34.76
8320;BME280;4197;42.130;24.746;2022-07-11T09:19:25;99407.34;;;25.37;34.08
8320;BME280;4197;42.130;24.746;2022-07-11T09:22:02;99420.28;;;25.31;32.79
8320;BME280;4197;42.130;24.746;2022-07-11T09:24:58;99410.41;;;25.30;31.69
8320;BME280;4197;42.130;24.746;2022-07-11T09:27:47;99418.00;;;25.39;31.16
8320;BME280;4197;42.130;24.746;2022-07-11T09:30:23;99418.31;;;25.41;30.71
8320;BME280;4197;42.130;24.746;2022-07-11T09:32:56;99422.91;;;25.34;30.19
8320;BME280;4197;42.130;24.746;2022-07-11T09:35:29;99418.13;;;25.35;30.80
8320;BME280;4197;42.130;24.746;2022-07-11T09:37:58;99437.81;;;25.50;30.47
8320;BME280;4197;42.130;24.746;2022-07-11T09:40:26;99415.72;;;25.46;29.18
8320;BME280;4197;42.130;24.746;2022-07-11T09:42:55;99413.25;;;25.48;29.23
8320;BME280;4197;42.130;24.746;2022-07-11T09:45:27;99418.97;;;25.45;28.58
8320;BME280;4197;42.130;24.746;2022-07-11T09:47:56;99426.34;;;25.39;28.08
8320;BME280;4197;42.130;24.746;2022-07-11T09:50:26;99432.53;;;25.52;27.96
8320;BME280;4197;42.130;24.746;2022-07-11T09:52:59;99422.41;;;25.58;26.87
8320;BME280;4197;42.130;24.746;2022-07-11T09:55:29;99425.63;;;25.56;25.71
8320;BME280;4197;42.130;24.746;2022-07-11T09:58:18;99425.38;;;25.32;25.99
8320;BME280;4197;42.130;24.746;2022-07-11T10:00:52;99420.59;;;25.33;26.11
8320;BME280;4197;42.130;24.746;2022-07-11T10:03:21;99423.75;;;25.44;26.76
8320;BME280;4197;42.130;24.746;2022-07-11T10:06:11;99427.09;;;25.39;26.95
8320;BME280;4197;42.130;24.746;2022-07-11T10:08:39;99425.47;;;25.51;26.92
8320;BME280;4197;42.130;24.746;2022-07-11T10:11:08;99442.47;;;25.62;26.13
8320;BME280;4197;42.130;24.746;2022-07-11T10:13:38;99412.34;;;25.51;24.71
8320;BME280;4197;42.130;24.746;2022-07-11T10:16:20;99414.75;;;25.40;24.82
8320;BME280;4197;42.130;24.746;2022-07-11T10:18:55;99416.94;;;25.45;24.55
8320;BME280;4197;42.130;24.746;2022-07-11T10:21:44;99413.44;;;25.54;24.53
8320;BME280;4197;42.130;24.746;2022-07-11T10:24:30;99407.13;;;25.63;24.72
8320;BME280;4197;42.130;24.746;2022-07-11T10:27:05;99410.72;;;25.72;25.37
8320;BME280;4197;42.130;24.746;2022-07-11T10:29:35;99414.44;;;25.78;24.74
8320;BME280;4197;42.130;24.746;2022-07-11T10:32:08;99412.09;;;25.68;24.59
8320;BME280;4197;42.130;24.746;2022-07-11T10:34:41;99407.63;;;25.70;25.16
8320;BME280;4197;42.130;24.746;2022-07-11T10:37:09;99410.84;;;25.69;26.13
8320;BME280;4197;42.130;24.746;2022-07-11T10:39:39;99410.75;;;25.81;25.64
8320;BME280;4197;42.130;24.746;2022-07-11T10:42:37;99398.91;;;25.90;26.67
8320;BME280;4197;42.130;24.746;2022-07-11T10:45:07;99418.38;;;25.99;26.44
8320;BME280;4197;42.130;24.746;2022-07-11T10:47:41;99406.16;;;25.88;26.49
8320;BME280;4197;42.130;24.746;2022-07-11T10:50:29;99397.63;;;25.73;26.86
8320;BME280;4197;42.130;24.746;2022-07-11T10:53:07;99403.94;;;25.82;27.14
8320;BME280;4197;42.130;24.746;2022-07-11T10:55:37;99402.00;;;25.92;27.02
8320;BME280;4197;42.130;24.746;2022-07-11T10:58:11;99389.97;;;25.86;27.00
8320;BME280;4197;42.130;24.746;2022-07-11T11:00:42;99394.84;;;25.82;27.55
8320;BME280;4197;42.130;24.746;2022-07-11T11:03:12;99400.59;;;25.88;27.41
8320;BME280;4197;42.130;24.746;2022-07-11T11:05:43;99401.69;;;25.99;27.80
8320;BME280;4197;42.130;24.746;2022-07-11T11:08:40;99387.38;;;26.19;27.87
8320;BME280;4197;42.130;24.746;2022-07-11T11:11:35;99391.09;;;26.16;26.63
8320;BME280;4197;42.130;24.746;2022-07-11T11:14:24;99394.00;;;26.13;26.67
8320;BME280;4197;42.130;24.746;2022-07-11T11:16:55;99387.22;;;26.14;27.02
8320;BME280;4197;42.130;24.746;2022-07-11T11:19:53;99393.88;;;26.25;28.04
8320;BME280;4197;42.130;24.746;2022-07-11T11:22:23;99392.63;;;26.36;28.01
8320;BME280;4197;42.130;24.746;2022-07-11T11:24:53;99390.47;;;26.40;27.09
8320;BME280;4197;42.130;24.746;2022-07-11T11:28:00;99396.31;;;26.33;27.15
8320;BME280;4197;42.130;24.746;2022-07-11T11:30:31;99395.72;;;26.29;27.83
8320;BME280;4197;42.130;24.746;2022-07-11T11:33:00;99397.28;;;26.39;27.33
8320;BME280;4197;42.130;24.746;2022-07-11T11:35:30;99383.38;;;26.39;27.67
8320;BME280;4197;42.130;24.746;2022-07-11T11:37:59;99391.22;;;26.40;27.75
8320;BME280;4197;42.130;24.746;2022-07-11T11:40:28;99389.38;;;26.28;28.14
8320;BME280;4197;42.130;24.746;2022-07-11T11:42:56;99394.00;;;26.40;27.49
8320;BME280;4197;42.130;24.746;2022-07-11T11:45:25;99394.94;;;26.37;27.46
8320;BME280;4197;42.130;24.746;2022-07-11T11:47:53;99409.00;;;26.34;27.10
8320;BME280;4197;42.130;24.746;2022-07-11T11:50:21;99400.50;;;26.28;26.76
8320;BME280;4197;42.130;24.746;2022-07-11T11:52:51;99397.72;;;26.28;27.31
8320;BME280;4197;42.130;24.746;2022-07-11T11:55:19;99391.56;;;26.33;26.90
8320;BME280;4197;42.130;24.746;2022-07-11T11:57:48;99378.72;;;26.45;27.29
8320;BME280;4197;42.130;24.746;2022-07-11T12:00:21;99394.00;;;26.40;27.33
8320;BME280;4197;42.130;24.746;2022-07-11T12:03:13;99387.06;;;26.26;27.11
8320;BME280;4197;42.130;24.746;2022-07-11T12:05:53;99378.88;;;26.23;27.18
8320;BME280;4197;42.130;24.746;2022-07-11T12:08:26;99386.31;;;26.17;27.59
8320;BME280;4197;42.130;24.746;2022-07-11T12:10:55;99392.00;;;26.13;26.87
8320;BME280;4197;42.130;24.746;2022-07-11T12:13:24;99387.81;;;26.27;27.51
8320;BME280;4197;42.130;24.746;2022-07-11T12:15:52;99396.19;;;26.36;26.28
8320;BME280;4197;42.130;24.746;2022-07-11T12:18:38;99384.59;;;26.38;26.98
8320;BME280;4197;42.130;24.746;2022-07-11T12:21:11;99387.38;;;26.29;26.24
8320;BME280;4197;42.130;24.746;2022-07-11T12:23:41;99388.59;;;26.18;26.01
8320;BME280;4197;42.130;24.746;2022-07-11T12:26:09;99390.78;;;26.14;26.90
8320;BME280;4197;42.130;24.746;2022-07-11T12:29:06;99403.41;;;26.15;27.50
8320;BME280;4197;42.130;24.746;2022-07-11T12:31:41;99390.16;;;26.19;26.15
8320;BME280;4197;42.130;24.746;2022-07-11T12:34:10;99393.53;;;26.23;26.53
8320;BME280;4197;42.130;24.746;2022-07-11T12:36:39;99394.75;;;26.13;26.40
8320;BME280;4197;42.130;24.746;2022-07-11T12:39:09;99385.53;;;26.16;26.66
8320;BME280;4197;42.130;24.746;2022-07-11T12:41:37;99384.88;;;26.21;25.67
8320;BME280;4197;42.130;24.746;2022-07-11T12:44:05;99382.44;;;26.05;26.33
8320;BME280;4197;42.130;24.746;2022-07-11T12:46:51;99379.66;;;26.05;26.23
8320;BME280;4197;42.130;24.746;2022-07-11T12:49:26;99385.66;;;26.03;25.65
8320;BME280;4197;42.130;24.746;2022-07-11T12:51:54;99384.56;;;26.01;25.63
8320;BME280;4197;42.130;24.746;2022-07-11T12:54:33;99364.84;;;26.08;26.20
8320;BME280;4197;42.130;24.746;2022-07-11T12:57:02;99386.44;;;26.13;26.00
8320;BME280;4197;42.130;24.746;2022-07-11T12:59:31;99381.34;;;26.12;25.29
8320;BME280;4197;42.130;24.746;2022-07-11T13:02:01;99378.41;;;26.15;25.43
8320;BME280;4197;42.130;24.746;2022-07-11T13:04:36;99390.13;;;26.10;25.95
8320;BME280;4197;42.130;24.746;2022-07-11T13:07:26;99370.22;;;26.21;25.44
8320;BME280;4197;42.130;24.746;2022-07-11T13:10:16;99382.75;;;26.25;24.89
8320;BME280;4197;42.130;24.746;2022-07-11T13:12:46;99370.38;;;26.26;24.64
8320;BME280;4197;42.130;24.746;2022-07-11T13:15:15;99361.75;;;26.24;25.03
8320;BME280;4197;42.130;24.746;2022-07-11T13:17:45;99366.84;;;26.26;24.44
8320;BME280;4197;42.130;24.746;2022-07-11T13:20:18;99367.63;;;26.17;24.35
8320;BME280;4197;42.130;24.746;2022-07-11T13:22:49;99360.53;;;26.16;24.35
8320;BME280;4197;42.130;24.746;2022-07-11T13:25:21;99369.28;;;26.24;24.63
8320;BME280;4197;42.130;24.746;2022-07-11T13:27:50;99373.78;;;26.21;24.37
8320;BME280;4197;42.130;24.746;2022-07-11T13:30:20;99372.41;;;26.17;24.12